Terminal Aerodrome Forecast
Issued by NWS Melbourne, FL

Home | Current Version | Previous Version | Text Only | Print | Product List | Glossary On
Versions: 1 2 3 4 5 6 7 8 9 10 11 12 13 14 15 16 17 18
000
FTUS42 KMLB 010500
TAFDAB
TAF
KDAB 010524Z 0106/0206 02007KT P6SM VCSH BKN025
     FM011000 00000KT 5SM BR SCT006
     FM011400 03006KT P6SM VCSH FEW010 BKN060
     FM012300 04004KT P6SM FEW025 SCT100 SCT250=

USA.gov is the U.S. government's official web portal to all federal, state and local government web resources and services.